sensor_id;sensor_type;location;lat;lon;timestamp;pressure;altitude;pressure_sealevel;temperature;humidity
21086;BME280;72320;50.082;20.000;2024-01-25T00:01:17;98793.56;;;8.37;95.95
21086;BME280;72320;50.082;20.000;2024-01-25T00:03:43;98791.77;;;8.37;96.01
21086;BME280;72320;50.082;20.000;2024-01-25T00:06:08;98790.91;;;8.34;96.05
21086;BME280;72320;50.082;20.000;2024-01-25T00:08:34;98795.38;;;8.38;95.65
21086;BME280;72320;50.082;20.000;2024-01-25T00:11:03;98783.02;;;8.36;94.43
21086;BME280;72320;50.082;20.000;2024-01-25T00:13:29;98793.35;;;8.40;93.63
21086;BME280;72320;50.082;20.000;2024-01-25T00:15:55;98797.44;;;8.50;92.94
21086;BME280;72320;50.082;20.000;2024-01-25T00:18:20;98794.17;;;8.59;91.18
21086;BME280;72320;50.082;20.000;2024-01-25T00:20:45;98803.59;;;8.66;89.54
21086;BME280;72320;50.082;20.000;2024-01-25T00:23:11;98810.97;;;8.71;88.97
21086;BME280;72320;50.082;20.000;2024-01-25T00:25:37;98808.63;;;8.70;89.59
21086;BME280;72320;50.082;20.000;2024-01-25T00:28:02;98802.92;;;8.62;90.18
21086;BME280;72320;50.082;20.000;2024-01-25T00:30:28;98800.87;;;8.49;90.78
21086;BME280;72320;50.082;20.000;2024-01-25T00:32:54;98811.85;;;8.40;91.48
21086;BME280;72320;50.082;20.000;2024-01-25T00:35:19;98818.14;;;8.35;92.32
21086;BME280;72320;50.082;20.000;2024-01-25T00:37:45;98816.46;;;8.31;92.74
21086;BME280;72320;50.082;20.000;2024-01-25T00:40:11;98810.40;;;8.24;93.46
21086;BME280;72320;50.082;20.000;2024-01-25T00:42:43;98815.39;;;8.23;93.31
21086;BME280;72320;50.082;20.000;2024-01-25T00:45:10;98808.48;;;8.19;93.55
21086;BME280;72320;50.082;20.000;2024-01-25T00:47:36;98808.27;;;8.14;94.02
21086;BME280;72320;50.082;20.000;2024-01-25T00:50:02;98806.08;;;8.13;94.69
21086;BME280;72320;50.082;20.000;2024-01-25T00:52:27;98787.09;;;8.06;95.74
21086;BME280;72320;50.082;20.000;2024-01-25T00:54:53;98808.70;;;7.99;96.95
21086;BME280;72320;50.082;20.000;2024-01-25T00:57:19;98832.19;;;8.03;98.07
21086;BME280;72320;50.082;20.000;2024-01-25T00:59:44;98842.31;;;8.11;99.66
21086;BME280;72320;50.082;20.000;2024-01-25T01:02:11;98835.23;;;8.00;100.00
21086;BME280;72320;50.082;20.000;2024-01-25T01:04:37;98839.54;;;7.83;100.00
21086;BME280;72320;50.082;20.000;2024-01-25T01:07:03;98836.52;;;7.72;100.00
21086;BME280;72320;50.082;20.000;2024-01-25T01:09:29;98830.14;;;7.62;100.00
21086;BME280;72320;50.082;20.000;2024-01-25T01:11:54;98827.08;;;7.54;100.00
21086;BME280;72320;50.082;20.000;2024-01-25T01:14:20;98827.99;;;7.51;100.00
21086;BME280;72320;50.082;20.000;2024-01-25T01:16:45;98824.20;;;7.50;100.00
21086;BME280;72320;50.082;20.000;2024-01-25T01:19:11;98823.57;;;7.54;100.00
21086;BME280;72320;50.082;20.000;2024-01-25T01:21:36;98812.58;;;7.58;100.00
21086;BME280;72320;50.082;20.000;2024-01-25T01:24:02;98817.80;;;7.65;100.00
21086;BME280;72320;50.082;20.000;2024-01-25T01:26:27;98809.96;;;7.69;100.00
21086;BME280;72320;50.082;20.000;2024-01-25T01:28:53;98805.13;;;7.76;100.00
21086;BME280;72320;50.082;20.000;2024-01-25T01:31:18;98797.73;;;7.84;100.00
21086;BME280;72320;50.082;20.000;2024-01-25T01:33:44;98806.71;;;7.92;99.96
21086;BME280;72320;50.082;20.000;2024-01-25T01:36:09;98803.55;;;8.03;98.32
21086;BME280;72320;50.082;20.000;2024-01-25T01:38:34;98800.34;;;8.11;96.43
21086;BME280;72320;50.082;20.000;2024-01-25T01:41:00;98800.59;;;8.21;95.78
21086;BME280;72320;50.082;20.000;2024-01-25T01:43:25;98800.26;;;8.28;94.84
21086;BME280;72320;50.082;20.000;2024-01-25T01:45:50;98797.32;;;8.36;93.82
21086;BME280;72320;50.082;20.000;2024-01-25T01:48:16;98798.09;;;8.37;92.90
21086;BME280;72320;50.082;20.000;2024-01-25T01:50:43;98797.86;;;8.41;92.54
21086;BME280;72320;50.082;20.000;2024-01-25T01:53:10;98794.13;;;8.42;92.09
21086;BME280;72320;50.082;20.000;2024-01-25T01:55:36;98788.02;;;8.41;92.05
21086;BME280;72320;50.082;20.000;2024-01-25T01:58:02;98773.98;;;8.42;92.27
21086;BME280;72320;50.082;20.000;2024-01-25T02:00:30;98775.12;;;8.41;92.58
21086;BME280;72320;50.082;20.000;2024-01-25T02:02:55;98784.67;;;8.35;92.94
21086;BME280;72320;50.082;20.000;2024-01-25T02:05:22;98778.55;;;8.28;92.51
21086;BME280;72320;50.082;20.000;2024-01-25T02:07:48;98785.27;;;8.31;93.15
21086;BME280;72320;50.082;20.000;2024-01-25T02:10:13;98784.55;;;8.37;92.33
21086;BME280;72320;50.082;20.000;2024-01-25T02:12:38;98782.07;;;8.40;91.70
21086;BME280;72320;50.082;20.000;2024-01-25T02:15:04;98792.48;;;8.45;90.84
21086;BME280;72320;50.082;20.000;2024-01-25T02:17:30;98796.73;;;8.50;89.61
21086;BME280;72320;50.082;20.000;2024-01-25T02:19:55;98799.55;;;8.52;89.45
21086;BME280;72320;50.082;20.000;2024-01-25T02:22:21;98803.11;;;8.60;89.05
21086;BME280;72320;50.082;20.000;2024-01-25T02:24:46;98801.20;;;8.62;89.00
21086;BME280;72320;50.082;20.000;2024-01-25T02:27:11;98795.05;;;8.62;89.14
21086;BME280;72320;50.082;20.000;2024-01-25T02:29:37;98780.80;;;8.50;88.91
21086;BME280;72320;50.082;20.000;2024-01-25T02:32:03;98780.05;;;8.41;89.52
21086;BME280;72320;50.082;20.000;2024-01-25T02:34:28;98791.45;;;8.34;90.13
21086;BME280;72320;50.082;20.000;2024-01-25T02:36:54;98791.41;;;8.37;90.58
21086;BME280;72320;50.082;20.000;2024-01-25T02:39:19;98795.41;;;8.35;91.24
21086;BME280;72320;50.082;20.000;2024-01-25T02:41:44;98798.19;;;8.41;91.28
21086;BME280;72320;50.082;20.000;2024-01-25T02:44:11;98802.38;;;8.37;92.60
21086;BME280;72320;50.082;20.000;2024-01-25T02:46:37;98793.91;;;8.28;93.63
21086;BME280;72320;50.082;20.000;2024-01-25T02:49:03;98791.66;;;8.27;93.62
21086;BME280;72320;50.082;20.000;2024-01-25T02:51:29;98793.95;;;8.25;93.16
21086;BME280;72320;50.082;20.000;2024-01-25T02:53:54;98786.90;;;8.22;92.75
21086;BME280;72320;50.082;20.000;2024-01-25T02:56:20;98792.56;;;8.19;92.01
21086;BME280;72320;50.082;20.000;2024-01-25T02:58:45;98790.05;;;8.23;91.81
21086;BME280;72320;50.082;20.000;2024-01-25T03:01:10;98794.80;;;8.28;91.24
21086;BME280;72320;50.082;20.000;2024-01-25T03:03:36;98798.43;;;8.32;90.68
21086;BME280;72320;50.082;20.000;2024-01-25T03:06:02;98793.16;;;8.34;89.67
21086;BME280;72320;50.082;20.000;2024-01-25T03:08:27;98799.26;;;8.33;89.32
21086;BME280;72320;50.082;20.000;2024-01-25T03:10:53;98797.51;;;8.36;89.24
21086;BME280;72320;50.082;20.000;2024-01-25T03:13:18;98800.73;;;8.38;88.89
21086;BME280;72320;50.082;20.000;2024-01-25T03:15:44;98805.52;;;8.42;88.05
21086;BME280;72320;50.082;20.000;2024-01-25T03:18:10;98806.27;;;8.44;87.29
21086;BME280;72320;50.082;20.000;2024-01-25T03:20:36;98795.18;;;8.44;88.09
21086;BME280;72320;50.082;20.000;2024-01-25T03:23:01;98798.10;;;8.40;88.27
21086;BME280;72320;50.082;20.000;2024-01-25T03:25:27;98805.38;;;8.42;88.26
21086;BME280;72320;50.082;20.000;2024-01-25T03:27:53;98800.67;;;8.44;88.12
21086;BME280;72320;50.082;20.000;2024-01-25T03:30:18;98798.61;;;8.35;87.23
21086;BME280;72320;50.082;20.000;2024-01-25T03:32:46;98797.98;;;8.28;87.18
21086;BME280;72320;50.082;20.000;2024-01-25T03:35:11;98805.90;;;8.31;86.97
21086;BME280;72320;50.082;20.000;2024-01-25T03:37:37;98818.15;;;8.35;86.52
21086;BME280;72320;50.082;20.000;2024-01-25T03:40:02;98860.97;;;8.36;87.23
21086;BME280;72320;50.082;20.000;2024-01-25T03:42:28;98871.34;;;8.36;89.10
21086;BME280;72320;50.082;20.000;2024-01-25T03:44:54;98885.80;;;8.06;94.06
21086;BME280;72320;50.082;20.000;2024-01-25T03:47:20;98880.64;;;7.59;99.54
21086;BME280;72320;50.082;20.000;2024-01-25T03:49:45;98870.71;;;7.24;100.00
21086;BME280;72320;50.082;20.000;2024-01-25T03:52:10;98876.45;;;7.02;100.00
21086;BME280;72320;50.082;20.000;2024-01-25T03:54:36;98884.20;;;6.87;100.00
21086;BME280;72320;50.082;20.000;2024-01-25T03:57:01;98886.05;;;6.77;100.00
21086;BME280;72320;50.082;20.000;2024-01-25T03:59:27;98884.36;;;6.66;100.00
21086;BME280;72320;50.082;20.000;2024-01-25T04:01:52;98884.49;;;6.52;100.00
21086;BME280;72320;50.082;20.000;2024-01-25T04:04:17;98869.79;;;6.45;100.00
21086;BME280;72320;50.082;20.000;2024-01-25T04:06:43;98868.11;;;6.35;100.00
21086;BME280;72320;50.082;20.000;2024-01-25T04:09:10;98877.45;;;6.22;100.00
21086;BME280;72320;50.082;20.000;2024-01-25T04:11:36;98870.69;;;6.20;100.00
21086;BME280;72320;50.082;20.000;2024-01-25T04:14:02;98865.31;;;6.16;100.00
21086;BME280;72320;50.082;20.000;2024-01-25T04:16:28;98861.59;;;6.10;100.00
21086;BME280;72320;50.082;20.000;2024-01-25T04:18:53;98864.94;;;6.07;100.00
21086;BME280;72320;50.082;20.000;2024-01-25T04:21:19;98862.77;;;6.05;100.00
21086;BME280;72320;50.082;20.000;2024-01-25T04:23:44;98852.96;;;6.08;100.00
21086;BME280;72320;50.082;20.000;2024-01-25T04:26:10;98845.25;;;6.10;100.00
21086;BME280;72320;50.082;20.000;2024-01-25T04:28:35;98836.94;;;6.15;100.00
21086;BME280;72320;50.082;20.000;2024-01-25T04:31:02;98832.67;;;6.15;100.00
21086;BME280;72320;50.082;20.000;2024-01-25T04:33:28;98821.86;;;6.17;100.00
21086;BME280;72320;50.082;20.000;2024-01-25T04:35:53;98820.35;;;6.22;100.00
21086;BME280;72320;50.082;20.000;2024-01-25T04:38:19;98814.30;;;6.26;100.00
21086;BME280;72320;50.082;20.000;2024-01-25T04:40:44;98827.37;;;6.34;100.00
21086;BME280;72320;50.082;20.000;2024-01-25T04:43:09;98827.04;;;6.43;100.00
21086;BME280;72320;50.082;20.000;2024-01-25T04:45:36;98833.23;;;6.51;100.00
21086;BME280;72320;50.082;20.000;2024-01-25T04:48:02;98834.80;;;6.60;100.00
21086;BME280;72320;50.082;20.000;2024-01-25T04:50:27;98828.80;;;6.72;100.00
21086;BME280;72320;50.082;20.000;2024-01-25T04:52:53;98832.23;;;6.82;100.00
21086;BME280;72320;50.082;20.000;2024-01-25T04:55:18;98828.80;;;6.96;100.00
21086;BME280;72320;50.082;20.000;2024-01-25T04:57:45;98829.84;;;7.07;100.00
21086;BME280;72320;50.082;20.000;2024-01-25T05:00:11;98828.17;;;7.23;100.00
21086;BME280;72320;50.082;20.000;2024-01-25T05:02:36;98824.71;;;7.33;97.37
21086;BME280;72320;50.082;20.000;2024-01-25T05:05:02;98826.69;;;7.47;94.68
21086;BME280;72320;50.082;20.000;2024-01-25T05:07:27;98820.36;;;7.52;91.58
21086;BME280;72320;50.082;20.000;2024-01-25T05:09:53;98826.94;;;7.68;91.76
21086;BME280;72320;50.082;20.000;2024-01-25T05:12:18;98820.37;;;7.71;90.06
21086;BME280;72320;50.082;20.000;2024-01-25T05:14:44;98821.60;;;7.74;89.27
21086;BME280;72320;50.082;20.000;2024-01-25T05:17:09;98820.23;;;7.82;89.39
21086;BME280;72320;50.082;20.000;2024-01-25T05:19:35;98820.94;;;7.82;88.41
21086;BME280;72320;50.082;20.000;2024-01-25T05:22:00;98830.31;;;7.89;88.18
21086;BME280;72320;50.082;20.000;2024-01-25T05:24:26;98824.14;;;7.92;87.38
21086;BME280;72320;50.082;20.000;2024-01-25T05:26:52;98827.52;;;7.94;87.87
21086;BME280;72320;50.082;20.000;2024-01-25T05:29:17;98830.09;;;7.98;88.22
21086;BME280;72320;50.082;20.000;2024-01-25T05:31:43;98830.17;;;7.91;87.50
21086;BME280;72320;50.082;20.000;2024-01-25T05:34:08;98836.55;;;7.93;88.22
21086;BME280;72320;50.082;20.000;2024-01-25T05:36:34;98833.03;;;7.88;88.36
21086;BME280;72320;50.082;20.000;2024-01-25T05:38:59;98834.27;;;7.83;89.23
21086;BME280;72320;50.082;20.000;2024-01-25T05:41:25;98834.55;;;7.84;89.59
21086;BME280;72320;50.082;20.000;2024-01-25T05:43:50;98834.88;;;7.79;90.31
21086;BME280;72320;50.082;20.000;2024-01-25T05:46:15;98837.69;;;7.70;91.26
21086;BME280;72320;50.082;20.000;2024-01-25T05:48:41;98839.70;;;7.77;91.70
21086;BME280;72320;50.082;20.000;2024-01-25T05:51:06;98834.73;;;7.70;91.83
21086;BME280;72320;50.082;20.000;2024-01-25T05:53:31;98838.23;;;7.70;91.92
21086;BME280;72320;50.082;20.000;2024-01-25T05:55:57;98839.71;;;7.74;92.02
21086;BME280;72320;50.082;20.000;2024-01-25T05:58:23;98842.14;;;7.78;91.86
21086;BME280;72320;50.082;20.000;2024-01-25T06:00:49;98834.48;;;7.77;91.68
21086;BME280;72320;50.082;20.000;2024-01-25T06:03:14;98834.80;;;7.72;90.93
21086;BME280;72320;50.082;20.000;2024-01-25T06:05:39;98827.52;;;7.64;90.77
21086;BME280;72320;50.082;20.000;2024-01-25T06:08:05;98833.44;;;7.70;90.72
21086;BME280;72320;50.082;20.000;2024-01-25T06:10:31;98837.52;;;7.76;90.49
21086;BME280;72320;50.082;20.000;2024-01-25T06:12:56;98844.94;;;7.78;91.66
21086;BME280;72320;50.082;20.000;2024-01-25T06:15:21;98843.32;;;7.73;92.93
21086;BME280;72320;50.082;20.000;2024-01-25T06:17:47;98836.10;;;7.70;94.09
21086;BME280;72320;50.082;20.000;2024-01-25T06:20:12;98844.86;;;7.65;94.92
21086;BME280;72320;50.082;20.000;2024-01-25T06:22:38;98851.61;;;7.67;95.15
21086;BME280;72320;50.082;20.000;2024-01-25T06:25:03;98851.37;;;7.66;95.55
21086;BME280;72320;50.082;20.000;2024-01-25T06:27:29;98854.23;;;7.62;96.54
21086;BME280;72320;50.082;20.000;2024-01-25T06:29:54;98863.17;;;7.65;97.32
21086;BME280;72320;50.082;20.000;2024-01-25T06:32:20;98854.71;;;7.55;99.29
21086;BME280;72320;50.082;20.000;2024-01-25T06:34:45;98854.28;;;7.44;100.00
21086;BME280;72320;50.082;20.000;2024-01-25T06:37:10;98857.56;;;7.42;100.00
21086;BME280;72320;50.082;20.000;2024-01-25T06:39:37;98849.63;;;7.37;100.00
21086;BME280;72320;50.082;20.000;2024-01-25T06:42:03;98838.52;;;7.29;100.00
21086;BME280;72320;50.082;20.000;2024-01-25T06:44:28;98846.71;;;7.25;100.00
21086;BME280;72320;50.082;20.000;2024-01-25T06:46:54;98857.69;;;7.21;100.00
21086;BME280;72320;50.082;20.000;2024-01-25T06:49:19;98864.34;;;7.16;100.00
21086;BME280;72320;50.082;20.000;2024-01-25T06:51:45;98860.09;;;7.08;100.00
21086;BME280;72320;50.082;20.000;2024-01-25T06:54:10;98859.59;;;7.02;100.00
21086;BME280;72320;50.082;20.000;2024-01-25T06:56:36;98854.49;;;6.81;100.00
21086;BME280;72320;50.082;20.000;2024-01-25T06:59:01;98855.44;;;6.74;100.00
21086;BME280;72320;50.082;20.000;2024-01-25T07:01:27;98855.62;;;6.68;100.00
21086;BME280;72320;50.082;20.000;2024-01-25T07:03:53;98856.54;;;6.58;100.00
21086;BME280;72320;50.082;20.000;2024-01-25T07:06:19;98858.01;;;6.48;100.00
21086;BME280;72320;50.082;20.000;2024-01-25T07:08:45;98860.71;;;6.44;100.00
21086;BME280;72320;50.082;20.000;2024-01-25T07:11:11;98861.87;;;6.39;100.00
21086;BME280;72320;50.082;20.000;2024-01-25T07:13:36;98860.34;;;6.39;100.00
21086;BME280;72320;50.082;20.000;2024-01-25T07:16:02;98848.59;;;6.26;100.00
21086;BME280;72320;50.082;20.000;2024-01-25T07:18:27;98851.71;;;6.29;100.00
21086;BME280;72320;50.082;20.000;2024-01-25T07:20:52;98849.10;;;6.26;100.00
21086;BME280;72320;50.082;20.000;2024-01-25T07:23:18;98848.95;;;6.25;100.00
21086;BME280;72320;50.082;20.000;2024-01-25T07:25:43;98854.02;;;6.23;100.00
21086;BME280;72320;50.082;20.000;2024-01-25T07:28:09;98850.56;;;6.22;100.00
21086;BME280;72320;50.082;20.000;2024-01-25T07:30:34;98856.64;;;6.29;100.00
21086;BME280;72320;50.082;20.000;2024-01-25T07:33:00;98851.02;;;6.35;100.00
21086;BME280;72320;50.082;20.000;2024-01-25T07:35:26;98846.63;;;6.38;100.00
21086;BME280;72320;50.082;20.000;2024-01-25T07:37:52;98853.17;;;6.38;100.00
21086;BME280;72320;50.082;20.000;2024-01-25T07:40:17;98857.65;;;6.33;100.00
21086;BME280;72320;50.082;20.000;2024-01-25T07:42:42;98854.99;;;6.40;100.00
21086;BME280;72320;50.082;20.000;2024-01-25T07:45:08;98864.65;;;6.43;100.00
21086;BME280;72320;50.082;20.000;2024-01-25T07:47:34;98877.48;;;6.46;100.00
21086;BME280;72320;50.082;20.000;2024-01-25T07:50:00;98881.02;;;6.52;100.00
21086;BME280;72320;50.082;20.000;2024-01-25T07:52:25;98891.45;;;6.53;100.00
21086;BME280;72320;50.082;20.000;2024-01-25T07:54:51;98902.14;;;6.51;100.00
21086;BME280;72320;50.082;20.000;2024-01-25T07:57:18;98904.97;;;6.42;100.00
21086;BME280;72320;50.082;20.000;2024-01-25T07:59:44;98909.27;;;6.33;100.00
21086;BME280;72320;50.082;20.000;2024-01-25T08:02:09;98912.41;;;6.25;100.00
21086;BME280;72320;50.082;20.000;2024-01-25T08:04:35;98919.10;;;6.22;100.00
21086;BME280;72320;50.082;20.000;2024-01-25T08:07:00;98915.27;;;6.21;100.00
21086;BME280;72320;50.082;20.000;2024-01-25T08:09:26;98909.89;;;6.17;100.00
21086;BME280;72320;50.082;20.000;2024-01-25T08:11:51;98909.33;;;6.14;100.00
21086;BME280;72320;50.082;20.000;2024-01-25T08:14:17;98916.07;;;6.10;100.00
21086;BME280;72320;50.082;20.000;2024-01-25T08:16:42;98912.06;;;6.10;100.00
21086;BME280;72320;50.082;20.000;2024-01-25T08:19:08;98909.63;;;6.03;100.00
21086;BME280;72320;50.082;20.000;2024-01-25T08:21:33;98908.34;;;6.03;100.00
21086;BME280;72320;50.082;20.000;2024-01-25T08:24:01;98907.98;;;6.04;100.00
21086;BME280;72320;50.082;20.000;2024-01-25T08:26:26;98905.89;;;6.06;100.00
21086;BME280;72320;50.082;20.000;2024-01-25T08:28:52;98902.65;;;6.05;100.00
21086;BME280;72320;50.082;20.000;2024-01-25T08:31:17;98902.02;;;6.10;100.00
21086;BME280;72320;50.082;20.000;2024-01-25T08:33:42;98897.06;;;6.14;100.00
21086;BME280;72320;50.082;20.000;2024-01-25T08:36:12;98888.70;;;6.13;100.00
21086;BME280;72320;50.082;20.000;2024-01-25T08:38:38;98898.67;;;6.13;100.00
21086;BME280;72320;50.082;20.000;2024-01-25T08:41:03;98890.49;;;6.15;100.00
21086;BME280;72320;50.082;20.000;2024-01-25T08:43:29;98894.81;;;6.10;100.00
21086;BME280;72320;50.082;20.000;2024-01-25T08:45:55;98897.52;;;6.09;100.00
21086;BME280;72320;50.082;20.000;2024-01-25T08:48:20;98898.36;;;6.10;100.00
21086;BME280;72320;50.082;20.000;2024-01-25T08:50:46;98901.00;;;6.09;100.00
21086;BME280;72320;50.082;20.000;2024-01-25T08:53:11;98900.75;;;6.11;100.00
21086;BME280;72320;50.082;20.000;2024-01-25T08:55:37;98899.59;;;6.09;100.00
21086;BME280;72320;50.082;20.000;2024-01-25T08:58:02;98904.20;;;6.12;100.00
21086;BME280;72320;50.082;20.000;2024-01-25T09:00:27;98901.87;;;6.19;100.00
21086;BME280;72320;50.082;20.000;2024-01-25T09:02:53;98903.40;;;6.19;100.00
21086;BME280;72320;50.082;20.000;2024-01-25T09:05:18;98908.45;;;6.33;100.00
21086;BME280;72320;50.082;20.000;2024-01-25T09:07:44;98894.11;;;6.44;100.00
21086;BME280;72320;50.082;20.000;2024-01-25T09:10:09;98900.21;;;6.45;100.00
21086;BME280;72320;50.082;20.000;2024-01-25T09:12:35;98903.23;;;6.50;100.00
21086;BME280;72320;50.082;20.000;2024-01-25T09:15:01;98904.38;;;6.55;100.00
21086;BME280;72320;50.082;20.000;2024-01-25T09:17:27;98899.23;;;6.55;100.00
21086;BME280;72320;50.082;20.000;2024-01-25T09:19:52;98906.64;;;6.52;100.00
21086;BME280;72320;50.082;20.000;2024-01-25T09:22:18;98907.90;;;6.58;100.00
21086;BME280;72320;50.082;20.000;2024-01-25T09:24:47;98900.73;;;6.57;100.00
21086;BME280;72320;50.082;20.000;2024-01-25T09:27:13;98903.27;;;6.62;100.00
21086;BME280;72320;50.082;20.000;2024-01-25T09:29:42;98897.52;;;6.67;100.00
21086;BME280;72320;50.082;20.000;2024-01-25T09:32:07;98894.75;;;6.75;100.00
21086;BME280;72320;50.082;20.000;2024-01-25T09:34:37;98890.99;;;6.79;100.00
21086;BME280;72320;50.082;20.000;2024-01-25T09:37:03;98897.30;;;6.82;100.00
21086;BME280;72320;50.082;20.000;2024-01-25T09:39:29;98895.56;;;6.88;100.00
21086;BME280;72320;50.082;20.000;2024-01-25T09:41:54;98900.57;;;6.90;100.00
21086;BME280;72320;50.082;20.000;2024-01-25T09:44:20;98903.09;;;6.86;100.00
21086;BME280;72320;50.082;20.000;2024-01-25T09:46:46;98906.17;;;6.93;100.00
21086;BME280;72320;50.082;20.000;2024-01-25T09:49:11;98901.41;;;7.05;100.00
21086;BME280;72320;50.082;20.000;2024-01-25T09:51:39;98895.23;;;7.17;100.00
21086;BME280;72320;50.082;20.000;2024-01-25T09:54:08;98881.41;;;7.30;100.00
21086;BME280;72320;50.082;20.000;2024-01-25T09:56:34;98883.73;;;7.35;100.00
21086;BME280;72320;50.082;20.000;2024-01-25T09:59:01;98887.75;;;7.36;100.00
21086;BME280;72320;50.082;20.000;2024-01-25T10:01:27;98893.79;;;7.43;100.00
21086;BME280;72320;50.082;20.000;2024-01-25T10:03:53;98900.27;;;7.53;100.00
21086;BME280;72320;50.082;20.000;2024-01-25T10:06:21;98898.17;;;7.58;100.00
21086;BME280;72320;50.082;20.000;2024-01-25T10:08:47;98912.55;;;7.70;100.00
21086;BME280;72320;50.082;20.000;2024-01-25T10:11:12;98896.98;;;7.83;100.00
21086;BME280;72320;50.082;20.000;2024-01-25T10:13:45;98895.62;;;7.76;100.00
21086;BME280;72320;50.082;20.000;2024-01-25T10:16:14;98888.02;;;7.79;100.00
21086;BME280;72320;50.082;20.000;2024-01-25T10:18:45;98897.27;;;7.78;100.00
21086;BME280;72320;50.082;20.000;2024-01-25T10:21:12;98899.92;;;7.89;100.00
21086;BME280;72320;50.082;20.000;2024-01-25T10:23:39;98903.70;;;7.82;100.00
21086;BME280;72320;50.082;20.000;2024-01-25T10:26:04;98906.83;;;7.88;100.00
21086;BME280;72320;50.082;20.000;2024-01-25T10:28:30;98911.10;;;7.90;100.00
21086;BME280;72320;50.082;20.000;2024-01-25T10:30:57;98905.84;;;7.95;100.00
21086;BME280;72320;50.082;20.000;2024-01-25T10:33:24;98902.69;;;8.01;100.00
21086;BME280;72320;50.082;20.000;2024-01-25T10:35:58;98902.75;;;7.97;100.00
21086;BME280;72320;50.082;20.000;2024-01-25T10:38:30;98898.70;;;8.03;100.00
21086;BME280;72320;50.082;20.000;2024-01-25T10:40:59;98901.17;;;8.00;100.00
21086;BME280;72320;50.082;20.000;2024-01-25T10:43:25;98892.75;;;8.02;100.00
21086;BME280;72320;50.082;20.000;2024-01-25T10:45:51;98907.35;;;8.08;100.00
21086;BME280;72320;50.082;20.000;2024-01-25T10:48:21;98906.67;;;8.15;100.00
21086;BME280;72320;50.082;20.000;2024-01-25T10:50:47;98909.52;;;8.26;100.00
21086;BME280;72320;50.082;20.000;2024-01-25T10:53:13;98911.34;;;8.34;99.98
21086;BME280;72320;50.082;20.000;2024-01-25T10:55:39;98903.61;;;8.36;98.30
21086;BME280;72320;50.082;20.000;2024-01-25T10:58:07;98909.43;;;8.41;97.89
21086;BME280;72320;50.082;20.000;2024-01-25T11:00:34;98904.55;;;8.41;97.46
21086;BME280;72320;50.082;20.000;2024-01-25T11:03:00;98897.77;;;8.34;96.00
21086;BME280;72320;50.082;20.000;2024-01-25T11:05:26;98908.41;;;8.32;95.99
21086;BME280;72320;50.082;20.000;2024-01-25T11:07:52;98908.67;;;8.28;96.52
21086;BME280;72320;50.082;20.000;2024-01-25T11:10:21;98905.01;;;8.17;97.95
21086;BME280;72320;50.082;20.000;2024-01-25T11:12:57;98907.58;;;8.04;99.83
21086;BME280;72320;50.082;20.000;2024-01-25T11:15:30;98903.54;;;7.98;100.00
21086;BME280;72320;50.082;20.000;2024-01-25T11:17:56;98901.98;;;8.01;100.00
21086;BME280;72320;50.082;20.000;2024-01-25T11:20:28;98905.96;;;8.02;100.00
21086;BME280;72320;50.082;20.000;2024-01-25T11:22:58;98904.53;;;7.97;100.00
21086;BME280;72320;50.082;20.000;2024-01-25T11:25:28;98905.63;;;7.91;100.00
21086;BME280;72320;50.082;20.000;2024-01-25T11:27:55;98908.92;;;7.83;100.00
21086;BME280;72320;50.082;20.000;2024-01-25T11:30:20;98909.80;;;7.89;100.00
21086;BME280;72320;50.082;20.000;2024-01-25T11:32:49;98908.95;;;8.02;100.00
21086;BME280;72320;50.082;20.000;2024-01-25T11:35:15;98906.80;;;8.16;99.81
21086;BME280;72320;50.082;20.000;2024-01-25T11:37:47;98919.68;;;8.30;97.68
21086;BME280;72320;50.082;20.000;2024-01-25T11:40:14;98914.88;;;8.42;95.58
21086;BME280;72320;50.082;20.000;2024-01-25T11:42:42;98924.42;;;8.49;94.94
21086;BME280;72320;50.082;20.000;2024-01-25T11:45:10;98931.86;;;8.62;94.13
21086;BME280;72320;50.082;20.000;2024-01-25T11:47:37;98926.55;;;8.79;93.61
21086;BME280;72320;50.082;20.000;2024-01-25T11:50:04;98932.38;;;8.97;92.47
21086;BME280;72320;50.082;20.000;2024-01-25T11:52:31;98935.77;;;9.09;90.92
21086;BME280;72320;50.082;20.000;2024-01-25T11:55:07;98933.70;;;9.14;90.19
21086;BME280;72320;50.082;20.000;2024-01-25T11:57:47;98933.02;;;9.11;90.63
21086;BME280;72320;50.082;20.000;2024-01-25T12:00:14;98939.52;;;9.06;91.18
21086;BME280;72320;50.082;20.000;2024-01-25T12:02:40;98940.43;;;9.06;91.60
21086;BME280;72320;50.082;20.000;2024-01-25T12:05:08;98954.14;;;9.04;90.97
21086;BME280;72320;50.082;20.000;2024-01-25T12:07:35;98954.84;;;8.99;91.36
21086;BME280;72320;50.082;20.000;2024-01-25T12:10:06;98951.94;;;8.92;91.63
21086;BME280;72320;50.082;20.000;2024-01-25T12:12:32;98952.57;;;8.82;92.34
21086;BME280;72320;50.082;20.000;2024-01-25T12:15:03;98952.83;;;8.76;93.46
21086;BME280;72320;50.082;20.000;2024-01-25T12:17:30;98950.48;;;8.71;93.77
21086;BME280;72320;50.082;20.000;2024-01-25T12:19:57;98956.20;;;8.81;93.89
21086;BME280;72320;50.082;20.000;2024-01-25T12:22:23;98964.43;;;8.93;93.82
21086;BME280;72320;50.082;20.000;2024-01-25T12:24:48;98965.48;;;9.03;93.64
21086;BME280;72320;50.082;20.000;2024-01-25T12:27:16;98972.45;;;9.02;92.66
21086;BME280;72320;50.082;20.000;2024-01-25T12:29:42;98975.70;;;8.98;92.73
21086;BME280;72320;50.082;20.000;2024-01-25T12:32:10;98973.84;;;8.94;93.42
21086;BME280;72320;50.082;20.000;2024-01-25T12:34:35;98969.98;;;8.97;93.49
21086;BME280;72320;50.082;20.000;2024-01-25T12:37:03;98975.36;;;8.98;93.56
21086;BME280;72320;50.082;20.000;2024-01-25T12:39:28;98970.98;;;9.08;93.66
21086;BME280;72320;50.082;20.000;2024-01-25T12:41:53;98966.24;;;8.99;93.06
21086;BME280;72320;50.082;20.000;2024-01-25T12:44:19;98971.09;;;9.04;92.74
21086;BME280;72320;50.082;20.000;2024-01-25T12:46:44;98965.42;;;9.04;92.95
21086;BME280;72320;50.082;20.000;2024-01-25T12:49:09;98973.98;;;8.92;93.12